Helene — V7VF9 — position and weather

sailwx.info

Track history (hours):
 
Tides and Currents Weather Stations Pressure Air Temp Water Temp Dewpoint Dewpoint Depression Visibility Wind Speed Wind Dir Waves Ship Positions

Helene

Last reported at 2017-Feb-22 23:06 UTC. Time now 2017-Feb-23 07:10 UTC.
Position S 23°58' W 046°18'.

Length 207 m; draft 9.4 m.

Type: Cargo ship. MMSI: 538006866.

Date/timePositionNaut miles runAvg speedWind from/ knotsBaromVisibWave heightAir tempDewpointWater temp
2017-Feb-22 23:06S 23°58' W 046°18'4 6.5
2017-Feb-22 22:33S 24°01' W 046°20'9 9.4
2017-Feb-22 21:33S 24°10' W 046°20'1 1.3
2017-Feb-22 20:29S 24°10' W 046°19'0 0.0
2017-Feb-22 19:32S 24°10' W 046°19'0 0.0
2017-Feb-22 18:29S 24°10' W 046°19'0 0.0
2017-Feb-22 17:32S 24°10' W 046°19'0 0.0
2017-Feb-22 16:29S 24°10' W 046°19'0 0.0
2017-Feb-22 15:26S 24°10' W 046°19'0 0.0
2017-Feb-22 14:29S 24°10' W 046°19'0 0.1
2017-Feb-22 13:32S 24°10' W 046°19'0 0.1
2017-Feb-22 12:22S 24°10' W 046°19'0 0.0
2017-Feb-22 11:31S 24°10' W 046°19'0 0.0
2017-Feb-22 10:28S 24°10' W 046°19'0 0.0
2017-Feb-22 09:28S 24°10' W 046°19'0 0.0
2017-Feb-22 08:31S 24°10' W 046°19'0 0.0
2017-Feb-22 07:31S 24°10' W 046°19'0 0.0
2017-Feb-22 06:28S 24°10' W 046°19'0 0.0
2017-Feb-22 05:28S 24°10' W 046°19'0 0.0
2017-Feb-22 04:31S 24°10' W 046°19'0 0.0
2017-Feb-22 03:28S 24°10' W 046°19'0 0.0
2017-Feb-22 02:31S 24°10' W 046°19'0 0.0
2017-Feb-22 01:31S 24°10' W 046°19'0 0.0
2017-Feb-22 00:31S 24°10' W 046°19'0 0.0
2017-Feb-21 23:31S 24°10' W 046°19'0 0.0
2017-Feb-21 22:31S 24°10' W 046°19'0 0.0
2017-Feb-21 21:31S 24°10' W 046°19'0 0.0
2017-Feb-21 20:31S 24°10' W 046°19'0 0.0
2017-Feb-21 19:28S 24°10' W 046°19'0 0.0
2017-Feb-21 18:28S 24°10' W 046°19'0 0.0
2017-Feb-21 17:31S 24°10' W 046°19'0 0.1
2017-Feb-21 16:28S 24°10' W 046°19'0 0.1
2017-Feb-21 15:16S 24°10' W 046°19'0 0.0
2017-Feb-21 14:28S 24°10' W 046°19'0 0.2
2017-Feb-21 13:33S 24°10' W 046°19'10 9.9
2017-Feb-21 12:33S 24°13' W 046°08'  
Track history (hours):
 
Tides and Currents Weather Stations Pressure Air Temp Water Temp Dewpoint Dewpoint Depression Visibility Wind Speed Wind Dir Waves Ship Positions

Helene

Last reported at 2017-Feb-22 23:06 UTC. Time now 2017-Feb-23 07:10 UTC.
Position S 23°58' W 046°18'.

Length 207 m; draft 9.4 m.

Type: Cargo ship. MMSI: 538006866.

Date/timePositionNaut miles runAvg speedWind from/ knotsBaromVisibWave heightAir tempDewpointWater temp
2017-Feb-22 23:06S 23°58' W 046°18'4 6.5
2017-Feb-22 22:33S 24°01' W 046°20'9 9.4
2017-Feb-22 21:33S 24°10' W 046°20'1 1.3
2017-Feb-22 20:29S 24°10' W 046°19'0 0.0
2017-Feb-22 19:32S 24°10' W 046°19'0 0.0
2017-Feb-22 18:29S 24°10' W 046°19'0 0.0
2017-Feb-22 17:32S 24°10' W 046°19'0 0.0
2017-Feb-22 16:29S 24°10' W 046°19'0 0.0
2017-Feb-22 15:26S 24°10' W 046°19'0 0.0
2017-Feb-22 14:29S 24°10' W 046°19'0 0.1
2017-Feb-22 13:32S 24°10' W 046°19'0 0.1
2017-Feb-22 12:22S 24°10' W 046°19'0 0.0
2017-Feb-22 11:31S 24°10' W 046°19'0 0.0
2017-Feb-22 10:28S 24°10' W 046°19'0 0.0
2017-Feb-22 09:28S 24°10' W 046°19'0 0.0
2017-Feb-22 08:31S 24°10' W 046°19'0 0.0
2017-Feb-22 07:31S 24°10' W 046°19'0 0.0
2017-Feb-22 06:28S 24°10' W 046°19'0 0.0
2017-Feb-22 05:28S 24°10' W 046°19'0 0.0
2017-Feb-22 04:31S 24°10' W 046°19'0 0.0
2017-Feb-22 03:28S 24°10' W 046°19'0 0.0
2017-Feb-22 02:31S 24°10' W 046°19'0 0.0
2017-Feb-22 01:31S 24°10' W 046°19'0 0.0
2017-Feb-22 00:31S 24°10' W 046°19'0 0.0
2017-Feb-21 23:31S 24°10' W 046°19'0 0.0
2017-Feb-21 22:31S 24°10' W 046°19'0 0.0
2017-Feb-21 21:31S 24°10' W 046°19'0 0.0
2017-Feb-21 20:31S 24°10' W 046°19'0 0.0
2017-Feb-21 19:28S 24°10' W 046°19'0 0.0
2017-Feb-21 18:28S 24°10' W 046°19'0 0.0
2017-Feb-21 17:31S 24°10' W 046°19'0 0.1
2017-Feb-21 16:28S 24°10' W 046°19'0 0.1
2017-Feb-21 15:16S 24°10' W 046°19'0 0.0
2017-Feb-21 14:28S 24°10' W 046°19'0 0.2
2017-Feb-21 13:33S 24°10' W 046°19'10 9.9
2017-Feb-21 12:33S 24°13' W 046°08'  

Dump ship's entire track history